Time;durP1;ratioP1;P1;durP2;ratioP2;P2;SDS_P1;SDS_P2;PMS_P1;PMS_P2;Temp;Humidity;BMP_temperature;BMP_pressure;BME280_temperature;BME280_humidity;BME280_pressure;Samples;Min_cycle;Max_cycle;Signal;HPM_P1;HPM_P2
2023/10/02 00:02:40;;;;;;;19.80;10.05;;;17.40;99.90;;;17.82;73.24;101082.78;5073508;28;20098;-85
2023/10/02 00:05:05;;;;;;;19.33;9.57;;;17.40;99.90;;;17.79;73.32;101085.97;5075303;28;20037;-85
2023/10/02 00:07:33;;;;;;;20.38;9.90;;;17.30;99.90;;;17.78;73.22;101092.44;5089182;28;20052;-85
2023/10/02 00:10:02;;;;;;;20.42;9.95;;;17.30;99.90;;;17.75;73.51;101082.13;5039242;28;20087;-85
2023/10/02 00:12:31;;;;;;;19.17;9.57;;;17.30;99.90;;;17.74;73.11;101092.09;5088830;28;20044;-85
2023/10/02 00:15:12;;;;;;;19.23;9.73;;;17.30;99.90;;;17.72;73.30;101087.97;5072638;28;20044;-85
2023/10/02 00:17:43;;;;;;;16.67;9.00;;;17.20;99.90;;;17.69;73.35;101080.38;5090372;28;20045;-85
2023/10/02 00:20:19;;;;;;;20.35;9.45;;;17.20;99.90;;;17.66;73.34;101087.06;5071548;28;20051;-85
2023/10/02 00:22:47;;;;;;;21.70;10.38;;;17.20;99.90;;;17.64;73.37;101085.66;5090120;28;20115;-85
2023/10/02 00:25:19;;;;;;;21.85;10.35;;;17.20;99.90;;;17.63;73.06;101090.25;5088657;28;20457;-85
2023/10/02 00:27:50;;;;;;;;;;;17.10;99.90;;;17.62;73.13;101083.22;5088761;28;20105;-85
2023/10/02 00:30:20;;;;;;;18.75;8.93;;;17.10;99.90;;;17.60;73.33;101089.91;5088481;28;19920;-85
2023/10/02 00:32:50;;;;;;;20.77;9.98;;;17.10;99.90;;;17.59;73.24;101094.50;5038943;28;20055;-85
2023/10/02 00:35:17;;;;;;;19.95;9.38;;;17.10;99.90;;;17.59;73.42;101093.69;5088454;28;20076;-85
2023/10/02 00:37:47;;;;;;;19.30;9.93;;;17.10;99.90;;;17.57;73.30;101091.22;5071367;28;20048;-85
2023/10/02 00:40:20;;;;;;;20.48;9.80;;;17.10;99.90;;;17.55;73.14;101085.25;5090816;28;20047;-85
2023/10/02 00:42:49;;;;;;;19.92;10.25;;;17.10;99.90;;;17.55;73.28;101082.53;5091959;28;20127;-85
2023/10/02 00:45:18;;;;;;;18.83;9.32;;;17.10;99.90;;;17.55;73.25;101081.72;5091579;28;20137;-85
2023/10/02 00:47:45;;;;;;;18.95;9.27;;;17.10;99.90;;;17.55;73.26;101079.03;5091443;28;20075;-85
2023/10/02 00:50:20;;;;;;;20.17;10.25;;;17.10;99.90;;;17.54;73.30;101085.50;5091918;28;20150;-85
2023/10/02 00:52:59;;;;;;;23.42;10.55;;;17.10;99.90;;;17.51;73.36;101076.81;5079033;28;20072;-85
2023/10/02 00:55:28;;;;;;;21.83;10.10;;;17.00;99.90;;;17.51;73.28;101082.19;5078169;28;20048;-85
2023/10/02 00:58:04;;;;;;;22.77;10.05;;;17.00;99.90;;;17.49;73.40;101073.56;5061017;28;20040;-85
2023/10/02 01:00:42;;;;;;;20.77;9.55;;;17.00;99.90;;;17.47;73.57;101070.28;5073993;28;20094;-85
2023/10/02 01:03:14;;;;;;;21.00;10.05;;;17.00;99.90;;;17.49;73.79;101076.25;5075983;28;20037;-85
2023/10/02 01:05:47;;;;;;;20.00;9.50;;;17.00;99.90;;;17.47;73.50;101075.69;5075520;28;20130;-85
2023/10/02 01:08:42;;;;;;;22.90;9.45;;;17.00;99.90;;;17.48;73.48;101079.19;5075796;28;20102;-85
2023/10/02 01:11:14;;;;;;;22.38;9.95;;;17.00;99.90;;;17.46;73.81;101068.63;5057586;28;20044;-85
2023/10/02 01:13:45;;;;;;;19.97;8.90;;;17.00;99.90;;;17.45;73.58;101071.56;5041553;28;20062;-85
2023/10/02 01:16:17;;;;;;;21.45;9.88;;;17.00;99.90;;;17.43;73.77;101071.81;5057382;28;20041;-85
2023/10/02 01:18:48;;;;;;;20.77;9.30;;;17.00;99.90;;;17.40;73.71;101075.00;5075662;28;20123;-85
2023/10/02 01:21:24;;;;;;;20.63;9.52;;;16.90;99.90;;;17.41;73.72;101070.41;5060940;28;20036;-85
2023/10/02 01:26:57;;;;;;;20.77;9.40;;;16.90;99.90;;;17.38;73.30;101076.31;5164865;27;20910;-85
2023/10/02 01:29:24;;;;;;;21.17;9.50;;;16.90;99.90;;;17.37;73.45;101075.50;5093205;28;20040;-85
2023/10/02 01:31:52;;;;;;;20.27;9.88;;;16.90;99.90;;;17.36;73.37;101076.53;5109962;28;20460;-85
2023/10/02 01:34:33;;;;;;;17.60;9.57;;;16.90;99.90;;;17.36;73.25;101068.44;5109759;28;20063;-85
2023/10/02 01:37:32;;;;;;;19.27;9.13;;;16.90;99.90;;;17.35;73.58;101072.22;5109673;28;20104;-85
2023/10/02 01:39:53;;;;;;;21.08;9.95;;;16.90;99.90;;;17.37;73.54;101069.25;5109096;28;20070;-85
2023/10/02 01:42:22;;;;;;;21.17;9.98;;;16.90;99.90;;;17.36;73.61;101068.44;5110012;28;20040;-85
2023/10/02 01:44:55;;;;;;;20.55;9.30;;;16.90;99.90;;;17.34;73.59;101065.19;5110631;28;20039;-85
2023/10/02 01:47:24;;;;;;;22.48;10.10;;;16.90;99.90;;;17.32;73.82;101067.28;5093444;28;20120;-85
2023/10/02 01:50:00;;;;;;;17.33;8.88;;;16.90;99.90;;;17.33;73.83;101057.34;5109130;28;20553;-85
2023/10/02 01:52:27;;;;;;;23.33;9.60;;;16.90;99.90;;;17.34;73.84;101065.19;5110620;28;20050;-85
2023/10/02 01:54:55;;;;;;;22.35;10.90;;;16.90;99.90;;;17.35;73.81;101060.59;5092339;28;20073;-85
2023/10/02 01:57:29;;;;;;;20.83;9.32;;;16.90;99.90;;;17.37;74.03;101063.88;5108805;28;20123;-85
2023/10/02 02:00:13;;;;;;;20.50;9.63;;;16.90;99.90;;;17.36;73.57;101063.06;5108533;28;20046;-84
2023/10/02 02:03:14;;;;;;;19.58;9.70;;;16.90;99.90;;;17.34;73.99;101065.19;5110306;28;20539;-85
2023/10/02 02:05:30;;;;;;;22.05;10.15;;;16.90;99.90;;;17.36;73.64;101057.66;5108893;28;20089;-85
2023/10/02 02:08:21;;;;;;;22.27;9.80;;;16.90;99.90;;;17.35;73.98;101056.03;5092401;28;20048;-85
2023/10/02 02:10:45;;;;;;;19.70;9.70;;;16.90;99.90;;;17.35;73.72;101047.94;5108969;28;20044;-85
2023/10/02 02:13:14;;;;;;;23.40;10.57;;;16.90;99.90;;;17.35;73.78;101050.63;5109005;28;20036;-85
2023/10/02 02:15:47;;;;;;;20.23;10.27;;;16.90;99.90;;;17.33;73.72;101052.75;5092015;28;20117;-85
2023/10/02 02:18:15;;;;;;;20.88;10.60;;;16.90;99.90;;;17.33;73.98;101052.75;5092096;28;20530;-85
2023/10/02 02:20:57;;;;;;;22.83;10.45;;;16.90;99.90;;;17.32;73.79;101051.09;5091543;28;20043;-85
2023/10/02 02:23:27;;;;;;;21.88;9.75;;;16.90;99.90;;;17.31;74.01;101052.16;5094275;28;20449;-85
2023/10/02 02:25:55;;;;;;;21.05;9.73;;;16.90;99.90;;;17.30;74.00;101047.84;5108309;28;20051;-85
2023/10/02 02:28:25;;;;;;;24.15;10.63;;;16.90;99.90;;;17.32;73.93;101039.50;5109825;28;20097;-85
2023/10/02 02:30:52;;;;;;;20.42;9.40;;;16.90;99.90;;;17.32;73.86;101044.91;5109693;28;20067;-85
2023/10/02 02:33:34;;;;;;;23.30;10.65;;;16.90;99.90;;;17.32;73.81;101045.72;5108461;28;20048;-85
2023/10/02 02:36:05;;;;;;;20.95;9.80;;;16.90;99.90;;;17.32;74.00;101044.91;5107369;28;20036;-86
2023/10/02 02:38:34;;;;;;;22.42;10.75;;;16.90;99.90;;;17.30;74.14;101042.44;5077574;28;20048;-85
2023/10/02 02:41:08;;;;;;;23.67;10.02;;;16.90;99.90;;;17.29;74.33;101045.41;5078004;28;20093;-85
2023/10/02 02:43:46;;;;;;;18.67;9.52;;;16.90;99.90;;;17.30;74.17;101047.03;5112221;28;20048;-85
2023/10/02 02:46:17;;;;;;;22.23;10.98;;;16.90;99.90;;;17.31;74.18;101043.28;5094510;28;20090;-85
2023/10/02 02:48:44;;;;;;;22.25;10.82;;;16.90;99.90;;;17.30;74.18;101052.44;5094579;28;20495;-85
2023/10/02 02:51:21;;;;;;;22.38;10.68;;;16.90;99.90;;;17.29;74.10;101046.22;5077733;28;20422;-85
2023/10/02 02:53:51;;;;;;;21.58;9.70;;;16.90;99.90;;;17.30;74.28;101044.34;5094669;28;20048;-85
2023/10/02 02:56:22;;;;;;;24.60;10.07;;;16.90;99.90;;;17.29;74.23;101043.53;5078276;28;20499;-85
2023/10/02 02:58:55;;;;;;;20.63;10.02;;;16.90;99.90;;;17.27;74.15;101036.72;5090451;28;20059;-84
2023/10/02 03:01:22;;;;;;;20.25;9.43;;;16.80;99.90;;;17.27;74.05;101039.41;5074492;28;20500;-85
2023/10/02 03:03:50;;;;;;;19.85;9.55;;;16.80;99.90;;;17.24;74.49;101030.75;5075307;28;20041;-85
2023/10/02 03:06:22;;;;;;;21.75;9.70;;;16.80;99.90;;;17.25;74.42;101039.66;5075276;28;20488;-85
2023/10/02 03:08:51;;;;;;;;;;;16.80;99.90;;;17.26;74.06;101035.91;5075581;28;20056;-85
2023/10/02 03:11:22;;;;;;;22.25;10.05;;;16.80;99.90;;;17.23;74.22;101031.81;5075167;28;19921;-85
2023/10/02 03:13:51;;;;;;;23.55;9.43;;;16.80;99.90;;;17.25;74.15;101035.09;5074413;28;20122;-85
2023/10/02 03:16:28;;;;;;;19.90;9.60;;;16.80;99.90;;;17.25;74.13;101031.56;5057450;28;20131;-85
2023/10/02 03:18:56;;;;;;;21.95;9.88;;;16.80;99.90;;;17.24;74.26;101032.63;5042577;28;20045;-85
2023/10/02 03:21:24;;;;;;;21.95;10.02;;;16.80;99.90;;;17.26;74.00;101025.13;5074779;28;20511;-85
2023/10/02 03:23:54;;;;;;;25.48;10.93;;;16.80;99.90;;;17.26;74.14;101027.81;5073900;28;20048;-85
2023/10/02 03:26:38;;;;;;;22.58;10.10;;;16.80;99.90;;;17.26;73.82;101030.50;5073637;28;20442;-85
2023/10/02 03:29:16;;;;;;;23.67;11.13;;;16.80;99.90;;;17.24;74.10;101027.25;5075132;28;20044;-85
2023/10/02 03:31:49;;;;;;;21.35;10.30;;;16.80;99.90;;;17.23;73.97;101026.44;5073714;28;20084;-85
2023/10/02 03:34:28;;;;;;;23.55;11.23;;;16.80;99.90;;;17.23;74.22;101031.00;5074786;28;20060;-85
2023/10/02 03:37:00;;;;;;;23.40;10.68;;;16.80;99.90;;;17.20;74.21;101021.50;5073414;28;20040;-85
2023/10/02 03:42:14;;;;;;;22.42;10.68;;;16.80;99.90;;;17.22;74.15;101016.69;5064189;28;20055;-85
2023/10/02 03:44:44;;;;;;;22.10;10.23;;;16.80;99.90;;;17.22;73.98;101018.56;5056859;28;20454;-85
2023/10/02 03:47:13;;;;;;;21.00;10.30;;;16.80;99.90;;;17.22;74.01;101014.00;5039544;28;20045;-85
2023/10/02 03:49:44;;;;;;;20.30;9.80;;;16.80;99.90;;;17.22;74.01;101008.59;5072600;28;20083;-85
2023/10/02 03:52:14;;;;;;;25.95;10.60;;;16.80;99.90;;;17.25;73.85;101007.31;5074387;28;20045;-85
2023/10/02 03:54:43;;;;;;;21.25;10.32;;;16.90;99.90;;;17.25;73.68;101010.00;5056512;28;20049;-85
2023/10/02 03:57:37;;;;;;;23.20;10.40;;;16.90;99.90;;;17.25;73.58;101012.72;5074328;28;20090;-85
2023/10/02 04:00:16;;;;;;;20.77;9.90;;;16.90;99.90;;;17.25;73.87;101001.91;5089427;28;20106;-85
2023/10/02 04:02:45;;;;;;;21.42;10.23;;;16.90;99.90;;;17.25;73.71;101007.31;5058285;28;20049;-85
2023/10/02 04:05:30;;;;;;;22.48;10.13;;;16.80;99.90;;;17.24;73.88;101000.28;5072747;28;20136;-85
2023/10/02 04:08:21;;;;;;;23.63;10.07;;;16.90;99.90;;;17.25;73.55;101000.03;5073353;28;20492;-85
2023/10/02 04:10:55;;;;;;;24.65;10.57;;;16.90;99.90;;;17.23;73.77;100990.56;5073061;28;20056;-85
2023/10/02 04:13:25;;;;;;;20.80;9.85;;;16.90;99.90;;;17.21;73.69;100990.78;5073079;28;20047;-85
2023/10/02 04:16:28;;;;;;;20.90;10.15;;;16.80;99.90;;;17.23;73.59;100990.56;5074408;28;20056;-85
2023/10/02 04:18:49;;;;;;;23.45;10.85;;;16.80;99.90;;;17.23;73.85;100987.88;5063785;28;20036;-85
2023/10/02 04:21:22;;;;;;;25.20;10.48;;;16.80;99.90;;;17.21;73.79;100984.59;5094220;28;20491;-85
2023/10/02 04:23:52;;;;;;;21.70;10.07;;;16.80;99.90;;;17.21;73.88;100985.41;5076958;28;20044;-85
2023/10/02 04:26:21;;;;;;;21.40;9.60;;;16.80;99.90;;;17.22;73.82;100987.03;5075580;28;20058;-86
2023/10/02 04:28:54;;;;;;;21.35;10.60;;;16.80;99.90;;;17.23;73.84;100979.78;5093946;28;20156;-86
2023/10/02 04:31:27;;;;;;;21.50;10.85;;;16.90;99.90;;;17.23;73.79;100985.19;5093075;28;20040;-85
2023/10/02 04:34:15;;;;;;;21.67;9.95;;;16.90;99.90;;;17.23;73.78;100982.50;5093983;28;20063;-85
2023/10/02 04:36:48;;;;;;;21.80;10.07;;;16.90;99.90;;;17.24;73.59;100978.72;5093798;28;20047;-85
2023/10/02 04:42:15;;;;;;;22.60;10.20;;;16.90;99.90;;;17.24;73.67;100984.94;5073409;28;20048;-85
2023/10/02 04:44:46;;;;;;;25.95;10.25;;;16.90;99.90;;;17.24;73.58;100984.13;5058109;28;20048;-85
2023/10/02 04:47:19;;;;;;;23.05;10.45;;;16.80;99.90;;;17.22;73.72;100981.63;5073619;28;20048;-85
2023/10/02 04:53:03;;;;;;;22.17;10.38;;;16.80;99.90;;;17.21;73.41;100979.19;5071211;28;20503;-85
2023/10/02 04:55:41;;;;;;;21.63;10.23;;;16.80;99.90;;;17.17;73.57;100976.16;5072230;28;20499;-85
2023/10/02 04:58:14;;;;;;;18.75;9.45;;;16.80;99.90;;;17.17;73.49;100980.75;5056521;28;20056;-85
2023/10/02 05:01:19;;;;;;;21.08;10.27;;;16.80;99.90;;;17.15;73.61;100977.47;5055418;28;20098;-85
2023/10/02 05:03:49;;;;;;;20.35;9.98;;;16.70;99.90;;;17.13;73.40;100987.66;5071950;28;20041;-85
2023/10/02 05:06:39;;;;;;;20.90;10.13;;;16.70;99.90;;;17.10;73.79;100972.81;5071655;28;20063;-85
2023/10/02 05:09:20;;;;;;;20.42;10.13;;;16.70;99.90;;;17.07;73.51;100984.06;5073046;28;20044;-85
2023/10/02 05:11:55;;;;;;;20.80;9.73;;;16.60;99.90;;;17.05;73.79;100982.69;5073123;28;20087;-85
2023/10/02 05:14:28;;;;;;;18.08;9.27;;;16.60;99.90;;;17.04;73.74;100983.75;5073134;28;20487;-85
2023/10/02 05:17:16;;;;;;;19.40;9.57;;;16.60;99.90;;;17.01;73.78;100985.03;5071870;28;20051;-85
2023/10/02 05:19:56;;;;;;;20.83;10.50;;;16.60;99.90;;;17.02;73.62;100986.66;5088079;28;20047;-85
2023/10/02 05:22:27;;;;;;;22.38;10.52;;;16.60;99.90;;;17.02;73.68;100985.84;5108763;28;20044;-85
2023/10/02 05:24:58;;;;;;;23.13;10.85;;;16.60;99.90;;;17.05;73.50;100991.59;5093033;28;20515;-85
2023/10/02 05:27:30;;;;;;;24.63;10.93;;;16.60;99.90;;;17.05;73.51;100991.59;5092019;28;20457;-85
2023/10/02 05:30:00;;;;;;;20.35;10.18;;;16.70;99.90;;;17.04;73.91;100986.44;5093238;28;20032;-85
2023/10/02 05:32:32;;;;;;;23.05;9.50;;;16.60;99.90;;;17.03;73.92;100990.19;5093379;28;20052;-85
2023/10/02 05:35:06;;;;;;;18.83;9.85;;;16.60;99.90;;;17.00;74.07;100986.09;5092502;28;20612;-85
2023/10/02 05:37:39;;;;;;;20.67;9.98;;;16.50;99.90;;;16.98;73.89;100989.03;5091751;28;20056;-84
2023/10/02 05:43:17;;;;;;;21.85;10.45;;;16.50;99.90;;;16.95;74.13;100992.22;5074652;28;20484;-85
2023/10/02 05:45:53;;;;;;;20.92;9.45;;;16.50;99.90;;;16.95;74.05;101003.00;5093068;28;20210;-85
2023/10/02 05:48:37;;;;;;;21.23;9.50;;;16.50;99.90;;;16.95;74.12;101004.88;5092878;28;20056;-86
2023/10/02 05:51:12;;;;;;;20.98;10.25;;;16.50;99.90;;;16.93;74.20;101007.81;5093353;28;20113;-85
2023/10/02 05:53:53;;;;;;;24.30;10.07;;;16.50;99.90;;;16.92;74.41;101013.41;5091634;28;20086;-85
2023/10/02 05:56:20;;;;;;;23.58;8.68;;;16.50;99.90;;;16.91;74.32;101012.59;5092983;28;20054;-85
2023/10/02 05:58:49;;;;;;;19.42;9.68;;;16.50;99.90;;;16.91;74.37;101014.50;5074241;28;20410;-85
2023/10/02 06:01:23;;;;;;;21.63;9.50;;;16.40;99.90;;;16.89;74.40;101012.03;5075271;28;20040;-85
2023/10/02 06:03:56;;;;;;;24.63;10.00;;;16.40;99.90;;;16.89;74.42;101013.91;5091806;28;20525;-85
2023/10/02 06:06:27;;;;;;;21.48;9.70;;;16.40;99.90;;;16.88;74.17;101018.47;5059540;28;20051;-85
2023/10/02 06:08:56;;;;;;;19.38;9.05;;;16.40;99.90;;;16.88;74.16;101023.84;5091605;28;20491;-85
2023/10/02 06:11:28;;;;;;;15.82;8.57;;;16.40;99.90;;;16.88;74.43;101020.34;5091916;28;20047;-85
2023/10/02 06:13:58;;;;;;;18.77;8.63;;;16.40;99.90;;;16.87;74.71;101022.22;5096566;28;20415;-85
2023/10/02 06:16:32;;;;;;;21.70;9.13;;;16.40;99.90;;;16.87;74.85;101019.53;5095339;28;20047;-85
2023/10/02 06:19:02;;;;;;;19.77;9.10;;;16.40;99.90;;;16.89;74.73;101019.31;5064396;28;20046;-85
2023/10/02 06:21:45;;;;;;;20.23;9.07;;;16.50;99.90;;;16.91;74.84;101019.88;5041877;28;20187;-85
2023/10/02 06:24:15;;;;;;;17.88;8.60;;;16.50;99.90;;;16.92;74.67;101021.50;5074771;28;20071;-85
2023/10/02 06:26:55;;;;;;;24.52;9.75;;;16.50;99.90;;;16.90;75.03;101013.66;5075647;28;20090;-85
2023/10/02 06:29:23;;;;;;;20.42;8.95;;;16.50;99.90;;;16.93;75.08;101006.97;5076072;28;20052;-85
2023/10/02 06:31:59;;;;;;;21.80;10.07;;;16.50;99.90;;;16.96;74.83;101010.00;5091649;28;20090;-85
2023/10/02 06:34:43;;;;;;;20.20;10.40;;;16.60;99.90;;;17.00;75.43;101010.34;5076346;28;20115;-85
2023/10/02 06:37:18;;;;;;;19.92;9.68;;;16.60;99.90;;;17.02;75.66;101018.19;5091362;28;20044;-85
2023/10/02 06:40:02;;;;;;;19.80;10.18;;;16.60;99.90;;;17.06;76.01;101019.34;5074580;28;20064;-84
2023/10/02 06:42:30;;;;;;;19.05;9.75;;;16.70;99.90;;;17.09;75.45;101013.50;5074683;28;20044;-85
2023/10/02 06:45:01;;;;;;;21.58;9.10;;;16.80;99.90;;;17.16;75.09;101019.53;5074545;28;20060;-85
2023/10/02 06:47:30;;;;;;;24.43;10.20;;;16.90;99.90;;;17.19;74.68;101010.97;5074392;28;20041;-85
2023/10/02 06:50:04;;;;;;;22.92;10.02;;;16.90;99.90;;;17.25;75.05;101015.41;5074400;28;20106;-85
2023/10/02 06:52:34;;;;;;;21.38;9.93;;;17.00;99.90;;;17.30;75.53;101020.88;5074442;28;20044;-85
2023/10/02 06:55:03;;;;;;;24.85;9.68;;;17.00;99.90;;;17.32;76.27;101016.06;5074676;28;20094;-85
2023/10/02 06:57:32;;;;;;;22.02;10.45;;;17.10;99.90;;;17.36;76.77;101014.50;5074808;28;20048;-85
2023/10/02 07:00:04;;;;;;;22.48;10.48;;;17.10;99.90;;;17.40;76.08;101012.97;5057695;28;20495;-85
2023/10/02 07:02:32;;;;;;;25.63;11.13;;;17.20;99.90;;;17.48;75.54;101017.97;5075137;28;20036;-85
2023/10/02 07:04:59;;;;;;;25.15;11.23;;;17.30;99.90;;;17.55;75.03;101017.00;5091340;28;20047;-85
2023/10/02 07:07:31;;;;;;;22.67;11.82;;;17.40;99.90;;;17.60;73.65;101015.19;5057188;28;20566;-85
2023/10/02 07:10:08;;;;;;;25.55;11.80;;;17.50;99.90;;;17.66;73.66;101018.78;5058033;28;20056;-85
2023/10/02 07:12:39;;;;;;;27.30;11.45;;;17.60;99.90;;;17.71;73.75;101016.19;5075151;28;20051;-85
2023/10/02 07:15:20;;;;;;;23.58;10.75;;;17.60;99.90;;;17.74;73.52;101021.94;5073944;28;20053;-85
2023/10/02 07:17:48;;;;;;;22.85;11.02;;;17.70;99.90;;;17.82;73.97;101022.63;5022917;28;20523;-85
2023/10/02 07:20:17;;;;;;;26.65;11.05;;;17.80;99.90;;;17.85;73.63;101024.81;5091043;28;20037;-85
2023/10/02 07:22:47;;;;;;;23.50;10.93;;;17.80;99.90;;;17.88;73.56;101014.34;5074032;28;20051;-85
2023/10/02 07:25:24;;;;;;;25.38;10.95;;;17.80;99.90;;;17.92;73.20;101018.19;5090658;28;20123;-85
2023/10/02 07:27:52;;;;;;;22.02;10.43;;;17.60;99.90;;;18.01;72.83;101022.09;5090425;28;20041;-85
2023/10/02 07:30:27;;;;;;;22.75;10.77;;;18.00;99.90;;;18.09;72.42;101017.34;5074982;28;20044;-85
2023/10/02 07:33:02;;;;;;;25.70;11.70;;;18.10;99.90;;;18.15;72.05;101021.75;5075161;28;20032;-85
2023/10/02 07:35:30;;;;;;;24.27;11.68;;;18.20;99.90;;;18.22;71.69;101015.13;5075194;28;20044;-85
2023/10/02 07:38:02;;;;;;;23.48;10.90;;;18.30;99.90;;;18.30;71.33;101010.34;5073391;28;20131;-85
2023/10/02 07:43:34;;;;;;;23.95;10.95;;;18.50;99.90;;;18.46;71.30;101007.63;5091675;27;20397;-88
2023/10/02 07:46:14;;;;;;;25.13;11.20;;;18.50;99.90;;;18.53;70.87;101010.94;5070695;28;20041;-88
2023/10/02 07:48:55;;;;;;;25.67;11.68;;;18.70;99.90;;;18.62;71.00;101005.09;5070781;28;20037;-88
2023/10/02 07:51:30;;;;;;;26.08;11.60;;;18.80;99.90;;;18.68;70.56;101001.38;5054897;28;20049;-89
2023/10/02 07:53:59;;;;;;;23.67;12.20;;;18.80;99.90;;;18.76;70.67;101000.97;5069421;28;20049;-89
2023/10/02 07:56:29;;;;;;;22.42;11.10;;;18.90;99.90;;;18.84;70.29;101007.81;5070432;28;20059;-88
2023/10/02 07:59:01;;;;;;;23.55;10.93;;;19.00;99.90;;;18.88;70.77;101009.75;5065390;28;20069;-90
2023/10/02 08:01:28;;;;;;;22.33;10.35;;;19.00;99.90;;;18.94;69.98;101008.78;5033372;28;20084;-90
2023/10/02 08:03:56;;;;;;;22.98;10.95;;;19.10;99.90;;;19.04;69.59;101000.75;5050349;28;20045;-90
2023/10/02 08:06:33;;;;;;;23.85;11.25;;;19.20;99.90;;;19.09;68.97;101002.72;5050450;28;20069;-89
2023/10/02 08:11:51;;;;;;;26.45;12.15;;;19.40;99.90;;;19.20;69.58;100998.22;5049762;28;20064;-89
2023/10/02 08:14:40;;;;;;;24.65;11.38;;;19.40;99.90;;;19.28;69.40;101001.28;5032486;28;20423;-89
2023/10/02 08:17:18;;;;;;;25.17;11.38;;;19.50;99.90;;;19.35;68.54;101000.25;5049329;28;20061;-88
2023/10/02 08:19:54;;;;;;;20.98;11.20;;;19.50;99.90;;;19.43;68.92;100988.97;5048991;28;20045;-87
2023/10/02 08:22:23;;;;;;;25.00;11.85;;;19.60;99.90;;;19.49;68.14;100996.03;5016798;28;20045;-87
2023/10/02 08:24:52;;;;;;;25.05;10.68;;;19.70;99.90;;;19.54;68.18;100991.50;5050506;28;20045;-87
2023/10/02 08:27:20;;;;;;;23.42;11.15;;;19.80;99.90;;;19.57;68.61;100987.47;5050182;28;20049;-90
2023/10/02 08:29:48;;;;;;;23.48;11.45;;;19.80;99.90;;;19.63;69.10;101000.00;5049152;28;20059;-88
2023/10/02 08:32:28;;;;;;;24.80;12.10;;;19.80;99.90;;;19.64;70.00;100996.19;5032216;28;20477;-87
2023/10/02 08:35:11;;;;;;;24.08;11.80;;;19.80;99.90;;;19.70;68.91;101007.88;5049132;28;20068;-87
2023/10/02 08:37:39;;;;;;;30.17;12.27;;;19.90;99.90;;;19.75;68.11;100997.91;5058843;28;20040;-87
2023/10/02 08:40:08;;;;;;;25.30;11.85;;;20.00;99.90;;;19.83;66.74;101002.03;5068346;28;20067;-87
2023/10/02 08:42:46;;;;;;;28.13;12.15;;;20.00;99.90;;;19.91;66.56;101004.28;5069191;28;20047;-87
2023/10/02 08:45:20;;;;;;;30.08;11.80;;;20.10;99.90;;;19.98;66.67;101002.13;5070293;28;20044;-87
2023/10/02 08:47:48;;;;;;;26.88;11.80;;;20.20;99.90;;;20.04;66.85;101008.41;5052309;28;20131;-87
2023/10/02 08:50:17;;;;;;;25.08;11.77;;;20.20;99.90;;;20.08;65.65;101000.56;5035199;28;20048;-87
2023/10/02 08:52:50;;;;;;;26.13;11.27;;;20.30;99.90;;;20.15;65.58;100999.25;5067396;28;20132;-87
2023/10/02 08:55:40;;;;;;;26.00;12.35;;;20.30;99.90;;;20.21;65.74;100984.69;5056075;28;20091;-87
2023/10/02 08:58:18;;;;;;;25.80;13.13;;;20.40;99.90;;;20.30;64.80;100993.09;5041287;28;20037;-87
2023/10/02 09:01:17;;;;;;;33.50;12.60;;;20.50;99.90;;;20.33;64.42;100989.88;5034660;28;20428;-87
2023/10/02 09:04:21;;;;;;;26.48;12.27;;;20.60;99.90;;;20.37;64.56;100993.69;5035023;28;20065;-87
2023/10/02 09:06:44;;;;;;;26.92;12.20;;;20.60;99.90;;;20.40;64.68;100995.88;5034523;28;20041;-87
2023/10/02 09:09:26;;;;;;;28.98;12.35;;;20.60;99.90;;;20.39;64.44;100991.53;5035123;28;20041;-87
2023/10/02 09:11:58;;;;;;;23.70;12.65;;;20.60;99.90;;;20.39;63.36;100983.41;5036017;28;20092;-87
2023/10/02 09:14:43;;;;;;;27.27;12.73;;;20.60;99.90;;;20.38;64.90;100984.47;5035025;28;20142;-87
2023/10/02 09:17:16;;;;;;;26.20;12.80;;;20.60;99.90;;;20.40;65.51;100986.91;5048738;28;20040;-87
2023/10/02 09:19:58;;;;;;;27.02;12.05;;;20.60;99.90;;;20.44;65.59;100994.25;5049846;28;20113;-88
2023/10/02 09:22:27;;;;;;;26.65;10.93;;;20.70;99.90;;;20.48;66.30;100995.41;5038497;28;20045;-87
2023/10/02 09:28:00;;;;;;;26.50;11.50;;;20.70;99.90;;;20.53;66.67;100984.56;5038114;28;20047;-87
2023/10/02 09:30:37;;;;;;;28.47;12.03;;;20.70;99.90;;;20.56;65.12;100994.91;5055848;28;20053;-87
2023/10/02 09:33:14;;;;;;;24.27;11.65;;;20.80;99.90;;;20.67;64.46;100993.03;5054494;28;20391;-87
2023/10/02 09:35:43;;;;;;;28.77;12.63;;;20.90;99.90;;;20.71;65.70;100998.75;5054691;28;20122;-88
2023/10/02 09:38:13;;;;;;;29.13;12.00;;;20.90;99.90;;;20.74;64.88;100996.34;5055736;28;20041;-93
2023/10/02 09:41:06;;;;;;;25.63;12.60;;;21.00;99.90;;;20.83;63.68;100991.19;5056149;28;20037;-92
2023/10/02 09:43:36;;;;;;;27.60;12.95;;;21.00;99.90;;;20.85;64.32;100989.03;5060045;28;20045;-90
2023/10/02 09:46:15;;;;;;;26.27;12.50;;;21.10;99.90;;;20.89;62.54;100975.78;5055102;28;20040;-90
2023/10/02 09:49:01;;;;;;;29.10;11.82;;;21.10;99.90;;;20.94;63.05;100976.59;5053911;28;20080;-90
2023/10/02 09:52:09;;;;;;;25.15;12.60;;;21.20;99.90;;;20.98;62.13;100974.94;5054172;28;20049;-90
2023/10/02 09:54:47;;;;;;;27.48;12.75;;;21.20;99.90;;;21.06;62.55;100966.28;5055814;28;20049;-93
2023/10/02 09:57:24;;;;;;;28.17;11.88;;;21.30;99.90;;;21.07;63.66;100978.78;5045380;28;20105;-91
2023/10/02 09:59:54;;;;;;;24.95;12.48;;;21.30;99.90;;;21.04;62.75;100970.38;5034724;28;20049;-88
2023/10/02 10:10:51;;;;;;;27.55;12.55;;;21.30;99.90;;;21.07;62.58;100951.66;5034082;28;20052;-88
2023/10/02 10:13:26;;;;;;;27.92;12.73;;;21.30;99.90;;;21.12;63.02;100945.41;4985436;28;20050;-87
2023/10/02 10:16:35;;;;;;;26.20;12.73;;;21.30;99.90;;;21.16;62.60;100948.41;5033342;28;20048;-90
2023/10/02 10:19:26;;;;;;;26.55;12.73;;;21.40;99.90;;;21.15;62.04;100936.75;5033939;28;20048;-88
2023/10/02 10:22:00;;;;;;;23.88;12.23;;;21.40;99.90;;;21.17;63.27;100941.91;5033013;28;20439;-89
2023/10/02 10:24:51;;;;;;;31.38;14.10;;;21.40;99.90;;;21.20;61.63;100941.38;5017639;28;20072;-90
2023/10/02 10:27:58;;;;;;;30.95;13.63;;;21.40;99.90;;;21.29;61.10;100951.41;5033324;28;20038;-90
2023/10/02 10:30:39;;;;;;;27.73;13.85;;;21.50;99.90;;;21.39;62.15;100949.81;5032550;28;20046;-89
2023/10/02 10:33:36;;;;;;;29.48;13.18;;;21.60;99.90;;;21.42;62.59;100950.06;5033146;28;20060;-88
2023/10/02 10:36:36;;;;;;;30.08;13.30;;;21.70;99.90;;;21.57;61.02;100949.28;5034022;28;20068;-85
2023/10/02 10:39:52;;;;;;;25.73;13.05;;;21.80;99.90;;;21.62;60.48;100940.28;5055389;28;20545;-84
2023/10/02 10:42:23;;;;;;;27.65;13.23;;;21.90;99.90;;;21.62;60.91;100937.56;5054974;28;20045;-84
2023/10/02 10:44:56;;;;;;;27.88;12.43;;;21.90;99.90;;;21.68;61.52;100939.22;5037254;28;20067;-84
2023/10/02 10:47:39;;;;;;;27.48;12.85;;;21.90;99.90;;;21.65;61.58;100926.19;5054221;28;20045;-85
2023/10/02 10:50:27;;;;;;;31.13;13.88;;;21.90;99.90;;;21.59;59.98;100930.81;5054024;28;20120;-85
2023/10/02 10:55:54;;;;;;;27.33;12.48;;;21.90;99.90;;;21.60;60.79;100935.13;5054824;28;20052;-85
2023/10/02 10:58:38;;;;;;;29.05;13.43;;;21.90;99.90;;;21.64;60.46;100941.66;5033475;28;20144;-85
2023/10/02 11:01:07;;;;;;;27.35;13.02;;;21.90;99.90;;;21.68;61.25;100941.94;5029891;28;20492;-85
2023/10/02 11:03:38;;;;;;;27.58;12.40;;;21.90;99.90;;;21.71;60.92;100950.31;5034475;28;20045;-85
2023/10/02 11:06:09;;;;;;;27.02;12.55;;;21.90;99.90;;;21.74;60.80;100933.50;5033273;28;20046;-85
2023/10/02 11:08:38;;;;;;;27.63;12.18;;;22.00;99.90;;;21.73;61.75;100921.00;5017610;28;20080;-85
2023/10/02 11:11:18;;;;;;;27.60;13.30;;;22.00;99.90;;;21.84;61.39;100919.88;5033657;28;20045;-85